sensor_id;sensor_type;location;lat;lon;timestamp;P1;durP1;ratioP1;P2;durP2;ratioP2
16531;SDS011;66872;63.142;14.482;2024-02-04T00:02:07;0.57;;;0.57;;
16531;SDS011;66872;63.142;14.482;2024-02-04T00:04:34;1.53;;;0.80;;
16531;SDS011;66872;63.142;14.482;2024-02-04T00:07:00;1.00;;;0.70;;
16531;SDS011;66872;63.142;14.482;2024-02-04T00:09:26;0.97;;;0.80;;
16531;SDS011;66872;63.142;14.482;2024-02-04T00:11:54;0.67;;;0.60;;
16531;SDS011;66872;63.142;14.482;2024-02-04T00:14:19;0.60;;;0.60;;
16531;SDS011;66872;63.142;14.482;2024-02-04T00:16:45;0.60;;;0.60;;
16531;SDS011;66872;63.142;14.482;2024-02-04T00:19:10;0.47;;;0.47;;
16531;SDS011;66872;63.142;14.482;2024-02-04T00:21:36;0.90;;;0.60;;
16531;SDS011;66872;63.142;14.482;2024-02-04T00:24:02;0.40;;;0.40;;
16531;SDS011;66872;63.142;14.482;2024-02-04T00:26:28;0.37;;;0.37;;
16531;SDS011;66872;63.142;14.482;2024-02-04T00:28:53;0.57;;;0.53;;
16531;SDS011;66872;63.142;14.482;2024-02-04T00:31:19;0.73;;;0.50;;
16531;SDS011;66872;63.142;14.482;2024-02-04T00:33:44;0.50;;;0.40;;
16531;SDS011;66872;63.142;14.482;2024-02-04T00:36:10;0.33;;;0.33;;
16531;SDS011;66872;63.142;14.482;2024-02-04T00:38:36;0.80;;;0.60;;
16531;SDS011;66872;63.142;14.482;2024-02-04T00:41:01;1.03;;;0.63;;
16531;SDS011;66872;63.142;14.482;2024-02-04T00:43:27;0.60;;;0.60;;
16531;SDS011;66872;63.142;14.482;2024-02-04T00:45:52;1.13;;;0.70;;
16531;SDS011;66872;63.142;14.482;2024-02-04T00:48:21;1.13;;;0.70;;
16531;SDS011;66872;63.142;14.482;2024-02-04T00:50:47;0.50;;;0.50;;
16531;SDS011;66872;63.142;14.482;2024-02-04T00:53:12;0.50;;;0.50;;
16531;SDS011;66872;63.142;14.482;2024-02-04T00:55:38;0.73;;;0.50;;
16531;SDS011;66872;63.142;14.482;2024-02-04T00:58:04;0.47;;;0.47;;
16531;SDS011;66872;63.142;14.482;2024-02-04T01:00:29;1.27;;;0.87;;
16531;SDS011;66872;63.142;14.482;2024-02-04T01:02:55;0.60;;;0.50;;
16531;SDS011;66872;63.142;14.482;2024-02-04T01:05:21;0.57;;;0.50;;
16531;SDS011;66872;63.142;14.482;2024-02-04T01:07:47;0.67;;;0.40;;
16531;SDS011;66872;63.142;14.482;2024-02-04T01:10:12;0.57;;;0.57;;
16531;SDS011;66872;63.142;14.482;2024-02-04T01:12:38;0.50;;;0.50;;
16531;SDS011;66872;63.142;14.482;2024-02-04T01:15:04;0.50;;;0.50;;
16531;SDS011;66872;63.142;14.482;2024-02-04T01:17:31;0.87;;;0.57;;
16531;SDS011;66872;63.142;14.482;2024-02-04T01:19:57;0.77;;;0.63;;
16531;SDS011;66872;63.142;14.482;2024-02-04T01:22:23;0.93;;;0.60;;
16531;SDS011;66872;63.142;14.482;2024-02-04T01:24:51;0.70;;;0.53;;
16531;SDS011;66872;63.142;14.482;2024-02-04T01:27:17;0.73;;;0.67;;
16531;SDS011;66872;63.142;14.482;2024-02-04T01:29:42;1.13;;;0.63;;
16531;SDS011;66872;63.142;14.482;2024-02-04T01:32:08;1.50;;;0.93;;
16531;SDS011;66872;63.142;14.482;2024-02-04T01:34:34;0.53;;;0.53;;
16531;SDS011;66872;63.142;14.482;2024-02-04T01:36:59;0.90;;;0.67;;
16531;SDS011;66872;63.142;14.482;2024-02-04T01:39:25;0.50;;;0.50;;
16531;SDS011;66872;63.142;14.482;2024-02-04T01:41:50;1.43;;;1.00;;
16531;SDS011;66872;63.142;14.482;2024-02-04T01:44:16;1.47;;;0.90;;
16531;SDS011;66872;63.142;14.482;2024-02-04T01:46:43;1.20;;;0.77;;
16531;SDS011;66872;63.142;14.482;2024-02-04T01:49:09;1.27;;;0.87;;
16531;SDS011;66872;63.142;14.482;2024-02-04T01:51:35;0.87;;;0.70;;
16531;SDS011;66872;63.142;14.482;2024-02-04T01:54:02;1.17;;;0.73;;
16531;SDS011;66872;63.142;14.482;2024-02-04T01:56:30;1.77;;;1.00;;
16531;SDS011;66872;63.142;14.482;2024-02-04T01:58:56;0.70;;;0.70;;
16531;SDS011;66872;63.142;14.482;2024-02-04T02:01:23;1.10;;;0.83;;
16531;SDS011;66872;63.142;14.482;2024-02-04T02:03:49;1.67;;;0.83;;
16531;SDS011;66872;63.142;14.482;2024-02-04T02:06:16;0.80;;;0.80;;
16531;SDS011;66872;63.142;14.482;2024-02-04T02:08:42;1.73;;;1.00;;
16531;SDS011;66872;63.142;14.482;2024-02-04T02:11:15;1.40;;;0.80;;
16531;SDS011;66872;63.142;14.482;2024-02-04T02:13:47;1.37;;;0.87;;
16531;SDS011;66872;63.142;14.482;2024-02-04T02:16:20;1.67;;;0.93;;
16531;SDS011;66872;63.142;14.482;2024-02-04T02:18:48;0.70;;;0.70;;
16531;SDS011;66872;63.142;14.482;2024-02-04T02:26:47;1.40;;;0.90;;
16531;SDS011;66872;63.142;14.482;2024-02-04T02:29:15;1.87;;;1.17;;
16531;SDS011;66872;63.142;14.482;2024-02-04T02:31:41;1.97;;;1.20;;
16531;SDS011;66872;63.142;14.482;2024-02-04T02:34:08;2.00;;;1.17;;
16531;SDS011;66872;63.142;14.482;2024-02-04T02:36:44;1.83;;;1.10;;
16531;SDS011;66872;63.142;14.482;2024-02-04T02:39:32;1.07;;;0.87;;
16531;SDS011;66872;63.142;14.482;2024-02-04T02:42:04;1.80;;;1.13;;
16531;SDS011;66872;63.142;14.482;2024-02-04T02:44:30;0.93;;;0.83;;
16531;SDS011;66872;63.142;14.482;2024-02-04T02:46:57;1.17;;;1.00;;
16531;SDS011;66872;63.142;14.482;2024-02-04T02:49:25;1.93;;;1.20;;
16531;SDS011;66872;63.142;14.482;2024-02-04T02:51:51;1.00;;;0.90;;
16531;SDS011;66872;63.142;14.482;2024-02-04T02:54:17;1.60;;;1.07;;
16531;SDS011;66872;63.142;14.482;2024-02-04T02:56:43;1.80;;;1.10;;
16531;SDS011;66872;63.142;14.482;2024-02-04T02:59:09;1.80;;;1.20;;
16531;SDS011;66872;63.142;14.482;2024-02-04T03:01:34;1.37;;;1.00;;
16531;SDS011;66872;63.142;14.482;2024-02-04T03:04:04;1.80;;;1.10;;
16531;SDS011;66872;63.142;14.482;2024-02-04T03:06:30;1.20;;;1.10;;
16531;SDS011;66872;63.142;14.482;2024-02-04T03:08:55;1.93;;;1.17;;
16531;SDS011;66872;63.142;14.482;2024-02-04T03:11:21;1.43;;;1.03;;
16531;SDS011;66872;63.142;14.482;2024-02-04T03:13:47;1.43;;;1.13;;
16531;SDS011;66872;63.142;14.482;2024-02-04T03:16:13;1.57;;;1.13;;
16531;SDS011;66872;63.142;14.482;2024-02-04T03:18:39;1.53;;;1.10;;
16531;SDS011;66872;63.142;14.482;2024-02-04T03:21:11;1.20;;;1.00;;
16531;SDS011;66872;63.142;14.482;2024-02-04T03:23:41;1.30;;;0.90;;
16531;SDS011;66872;63.142;14.482;2024-02-04T03:26:08;2.23;;;1.30;;
16531;SDS011;66872;63.142;14.482;2024-02-04T03:28:34;1.30;;;0.90;;
16531;SDS011;66872;63.142;14.482;2024-02-04T03:31:00;2.13;;;1.20;;
16531;SDS011;66872;63.142;14.482;2024-02-04T03:33:25;2.27;;;1.20;;
16531;SDS011;66872;63.142;14.482;2024-02-04T03:35:51;2.17;;;1.43;;
16531;SDS011;66872;63.142;14.482;2024-02-04T03:38:17;2.13;;;0.90;;
16531;SDS011;66872;63.142;14.482;2024-02-04T03:40:42;1.67;;;1.10;;
16531;SDS011;66872;63.142;14.482;2024-02-04T03:43:08;2.13;;;1.23;;
16531;SDS011;66872;63.142;14.482;2024-02-04T03:45:37;1.60;;;1.10;;
16531;SDS011;66872;63.142;14.482;2024-02-04T03:48:03;1.27;;;1.00;;
16531;SDS011;66872;63.142;14.482;2024-02-04T03:50:29;1.10;;;1.00;;
16531;SDS011;66872;63.142;14.482;2024-02-04T03:52:54;2.30;;;1.23;;
16531;SDS011;66872;63.142;14.482;2024-02-04T03:55:20;1.23;;;0.90;;
16531;SDS011;66872;63.142;14.482;2024-02-04T03:57:46;1.40;;;1.10;;
16531;SDS011;66872;63.142;14.482;2024-02-04T04:00:12;2.03;;;1.30;;
16531;SDS011;66872;63.142;14.482;2024-02-04T04:02:38;1.33;;;0.87;;
16531;SDS011;66872;63.142;14.482;2024-02-04T04:05:03;1.23;;;0.93;;
16531;SDS011;66872;63.142;14.482;2024-02-04T04:07:30;1.10;;;1.00;;
16531;SDS011;66872;63.142;14.482;2024-02-04T04:09:55;1.80;;;1.07;;
16531;SDS011;66872;63.142;14.482;2024-02-04T04:12:21;1.00;;;0.90;;
16531;SDS011;66872;63.142;14.482;2024-02-04T04:14:47;1.00;;;0.87;;
16531;SDS011;66872;63.142;14.482;2024-02-04T04:17:12;1.83;;;1.10;;
16531;SDS011;66872;63.142;14.482;2024-02-04T04:19:38;1.07;;;0.90;;
16531;SDS011;66872;63.142;14.482;2024-02-04T04:22:04;1.73;;;1.00;;
16531;SDS011;66872;63.142;14.482;2024-02-04T04:24:30;1.30;;;1.10;;
16531;SDS011;66872;63.142;14.482;2024-02-04T04:26:55;0.90;;;0.80;;
16531;SDS011;66872;63.142;14.482;2024-02-04T04:29:21;1.67;;;0.90;;
16531;SDS011;66872;63.142;14.482;2024-02-04T04:31:47;0.97;;;0.87;;
16531;SDS011;66872;63.142;14.482;2024-02-04T04:34:13;1.47;;;1.07;;
16531;SDS011;66872;63.142;14.482;2024-02-04T04:36:39;1.47;;;1.10;;
16531;SDS011;66872;63.142;14.482;2024-02-04T04:39:04;1.40;;;1.03;;
16531;SDS011;66872;63.142;14.482;2024-02-04T04:41:30;1.60;;;1.10;;
16531;SDS011;66872;63.142;14.482;2024-02-04T04:43:56;1.10;;;0.80;;
16531;SDS011;66872;63.142;14.482;2024-02-04T04:46:21;1.23;;;0.87;;
16531;SDS011;66872;63.142;14.482;2024-02-04T04:48:47;1.33;;;0.90;;
16531;SDS011;66872;63.142;14.482;2024-02-04T04:51:13;1.27;;;1.00;;
16531;SDS011;66872;63.142;14.482;2024-02-04T04:53:38;1.30;;;1.00;;
16531;SDS011;66872;63.142;14.482;2024-02-04T04:56:04;1.63;;;1.13;;
16531;SDS011;66872;63.142;14.482;2024-02-04T04:58:31;0.83;;;0.80;;
16531;SDS011;66872;63.142;14.482;2024-02-04T05:00:57;1.20;;;0.83;;
16531;SDS011;66872;63.142;14.482;2024-02-04T05:03:22;0.87;;;0.80;;
16531;SDS011;66872;63.142;14.482;2024-02-04T05:05:48;1.20;;;1.00;;
16531;SDS011;66872;63.142;14.482;2024-02-04T05:08:14;1.23;;;0.90;;
16531;SDS011;66872;63.142;14.482;2024-02-04T05:10:40;0.93;;;0.80;;
16531;SDS011;66872;63.142;14.482;2024-02-04T05:13:06;1.17;;;0.77;;
16531;SDS011;66872;63.142;14.482;2024-02-04T05:15:33;0.67;;;0.67;;
16531;SDS011;66872;63.142;14.482;2024-02-04T05:18:01;1.53;;;0.97;;
16531;SDS011;66872;63.142;14.482;2024-02-04T05:20:27;0.93;;;0.77;;
16531;SDS011;66872;63.142;14.482;2024-02-04T05:22:53;1.00;;;0.70;;
16531;SDS011;66872;63.142;14.482;2024-02-04T05:25:20;1.00;;;0.90;;
16531;SDS011;66872;63.142;14.482;2024-02-04T05:27:46;0.80;;;0.73;;
16531;SDS011;66872;63.142;14.482;2024-02-04T05:30:11;0.90;;;0.80;;
16531;SDS011;66872;63.142;14.482;2024-02-04T05:32:37;1.00;;;0.90;;
16531;SDS011;66872;63.142;14.482;2024-02-04T05:35:03;0.80;;;0.77;;
16531;SDS011;66872;63.142;14.482;2024-02-04T05:37:29;1.00;;;0.87;;
16531;SDS011;66872;63.142;14.482;2024-02-04T05:39:55;0.70;;;0.70;;
16531;SDS011;66872;63.142;14.482;2024-02-04T05:42:20;0.97;;;0.83;;
16531;SDS011;66872;63.142;14.482;2024-02-04T05:44:46;0.77;;;0.77;;
16531;SDS011;66872;63.142;14.482;2024-02-04T05:47:12;0.80;;;0.60;;
16531;SDS011;66872;63.142;14.482;2024-02-04T05:49:37;0.83;;;0.70;;
16531;SDS011;66872;63.142;14.482;2024-02-04T05:52:03;1.20;;;0.90;;
16531;SDS011;66872;63.142;14.482;2024-02-04T05:54:29;0.70;;;0.70;;
16531;SDS011;66872;63.142;14.482;2024-02-04T05:56:54;0.97;;;0.77;;
16531;SDS011;66872;63.142;14.482;2024-02-04T05:59:20;0.77;;;0.77;;
16531;SDS011;66872;63.142;14.482;2024-02-04T06:01:46;0.50;;;0.50;;
16531;SDS011;66872;63.142;14.482;2024-02-04T06:04:11;1.07;;;0.90;;
16531;SDS011;66872;63.142;14.482;2024-02-04T06:06:37;0.80;;;0.70;;
16531;SDS011;66872;63.142;14.482;2024-02-04T06:09:03;1.30;;;0.80;;
16531;SDS011;66872;63.142;14.482;2024-02-04T06:11:29;1.17;;;0.90;;
16531;SDS011;66872;63.142;14.482;2024-02-04T06:13:54;0.60;;;0.60;;
16531;SDS011;66872;63.142;14.482;2024-02-04T06:16:20;1.03;;;0.70;;
16531;SDS011;66872;63.142;14.482;2024-02-04T06:18:46;0.90;;;0.80;;
16531;SDS011;66872;63.142;14.482;2024-02-04T06:21:11;1.07;;;0.90;;
16531;SDS011;66872;63.142;14.482;2024-02-04T06:23:38;0.93;;;0.83;;
16531;SDS011;66872;63.142;14.482;2024-02-04T06:26:04;1.83;;;0.80;;
16531;SDS011;66872;63.142;14.482;2024-02-04T06:28:30;1.00;;;0.80;;
16531;SDS011;66872;63.142;14.482;2024-02-04T06:30:55;0.73;;;0.70;;
16531;SDS011;66872;63.142;14.482;2024-02-04T06:33:21;0.83;;;0.60;;
16531;SDS011;66872;63.142;14.482;2024-02-04T06:35:48;0.93;;;0.60;;
16531;SDS011;66872;63.142;14.482;2024-02-04T06:38:13;0.93;;;0.60;;
16531;SDS011;66872;63.142;14.482;2024-02-04T06:40:39;0.77;;;0.70;;
16531;SDS011;66872;63.142;14.482;2024-02-04T06:43:05;0.67;;;0.53;;
16531;SDS011;66872;63.142;14.482;2024-02-04T06:45:30;1.00;;;0.70;;
16531;SDS011;66872;63.142;14.482;2024-02-04T06:47:56;0.53;;;0.53;;
16531;SDS011;66872;63.142;14.482;2024-02-04T06:50:21;0.70;;;0.43;;
16531;SDS011;66872;63.142;14.482;2024-02-04T06:52:47;0.70;;;0.60;;
16531;SDS011;66872;63.142;14.482;2024-02-04T06:55:13;0.50;;;0.50;;
16531;SDS011;66872;63.142;14.482;2024-02-04T06:57:38;0.97;;;0.80;;
16531;SDS011;66872;63.142;14.482;2024-02-04T07:00:05;1.57;;;0.60;;
16531;SDS011;66872;63.142;14.482;2024-02-04T07:02:33;0.70;;;0.70;;
16531;SDS011;66872;63.142;14.482;2024-02-04T07:04:59;0.77;;;0.77;;
16531;SDS011;66872;63.142;14.482;2024-02-04T07:07:25;0.67;;;0.60;;
16531;SDS011;66872;63.142;14.482;2024-02-04T07:09:50;1.07;;;0.70;;
16531;SDS011;66872;63.142;14.482;2024-02-04T07:12:16;0.77;;;0.77;;
16531;SDS011;66872;63.142;14.482;2024-02-04T07:14:41;0.77;;;0.70;;
16531;SDS011;66872;63.142;14.482;2024-02-04T07:17:07;0.97;;;0.77;;
16531;SDS011;66872;63.142;14.482;2024-02-04T07:19:33;0.70;;;0.53;;
16531;SDS011;66872;63.142;14.482;2024-02-04T07:22:00;1.40;;;0.80;;
16531;SDS011;66872;63.142;14.482;2024-02-04T07:24:26;0.70;;;0.57;;
16531;SDS011;66872;63.142;14.482;2024-02-04T07:26:52;0.80;;;0.73;;
16531;SDS011;66872;63.142;14.482;2024-02-04T07:29:17;0.60;;;0.47;;
16531;SDS011;66872;63.142;14.482;2024-02-04T07:31:43;0.53;;;0.53;;
16531;SDS011;66872;63.142;14.482;2024-02-04T07:34:08;1.03;;;0.77;;
16531;SDS011;66872;63.142;14.482;2024-02-04T07:36:34;1.20;;;0.77;;
16531;SDS011;66872;63.142;14.482;2024-02-04T07:39:00;0.80;;;0.70;;
16531;SDS011;66872;63.142;14.482;2024-02-04T07:41:29;0.63;;;0.60;;
16531;SDS011;66872;63.142;14.482;2024-02-04T07:43:55;0.50;;;0.50;;
16531;SDS011;66872;63.142;14.482;2024-02-04T07:46:21;0.70;;;0.60;;
16531;SDS011;66872;63.142;14.482;2024-02-04T07:48:46;0.60;;;0.60;;
16531;SDS011;66872;63.142;14.482;2024-02-04T07:51:12;0.57;;;0.50;;
16531;SDS011;66872;63.142;14.482;2024-02-04T07:53:38;1.53;;;0.47;;
16531;SDS011;66872;63.142;14.482;2024-02-04T07:56:04;0.40;;;0.40;;
16531;SDS011;66872;63.142;14.482;2024-02-04T07:58:31;0.60;;;0.60;;
16531;SDS011;66872;63.142;14.482;2024-02-04T08:00:57;0.70;;;0.70;;
16531;SDS011;66872;63.142;14.482;2024-02-04T08:03:23;0.50;;;0.50;;
16531;SDS011;66872;63.142;14.482;2024-02-04T08:05:49;1.30;;;0.80;;
16531;SDS011;66872;63.142;14.482;2024-02-04T08:08:14;0.70;;;0.60;;
16531;SDS011;66872;63.142;14.482;2024-02-04T08:10:40;0.70;;;0.47;;
16531;SDS011;66872;63.142;14.482;2024-02-04T08:13:06;0.60;;;0.60;;
16531;SDS011;66872;63.142;14.482;2024-02-04T08:15:31;1.03;;;0.60;;
16531;SDS011;66872;63.142;14.482;2024-02-04T08:17:57;0.57;;;0.43;;
16531;SDS011;66872;63.142;14.482;2024-02-04T08:20:22;0.70;;;0.60;;
16531;SDS011;66872;63.142;14.482;2024-02-04T08:22:48;0.80;;;0.80;;
16531;SDS011;66872;63.142;14.482;2024-02-04T08:25:15;0.60;;;0.60;;
16531;SDS011;66872;63.142;14.482;2024-02-04T08:27:40;0.53;;;0.47;;
16531;SDS011;66872;63.142;14.482;2024-02-04T08:30:06;1.00;;;0.70;;
16531;SDS011;66872;63.142;14.482;2024-02-04T08:32:32;0.33;;;0.33;;
16531;SDS011;66872;63.142;14.482;2024-02-04T08:34:58;0.70;;;0.60;;
16531;SDS011;66872;63.142;14.482;2024-02-04T08:37:23;0.70;;;0.67;;
16531;SDS011;66872;63.142;14.482;2024-02-04T08:39:49;0.93;;;0.60;;
16531;SDS011;66872;63.142;14.482;2024-02-04T08:42:15;0.50;;;0.50;;
16531;SDS011;66872;63.142;14.482;2024-02-04T08:44:40;0.73;;;0.67;;
16531;SDS011;66872;63.142;14.482;2024-02-04T08:47:06;0.50;;;0.50;;
16531;SDS011;66872;63.142;14.482;2024-02-04T08:49:35;0.70;;;0.70;;
16531;SDS011;66872;63.142;14.482;2024-02-04T08:52:01;0.70;;;0.70;;
16531;SDS011;66872;63.142;14.482;2024-02-04T08:54:27;0.93;;;0.80;;
16531;SDS011;66872;63.142;14.482;2024-02-04T08:56:52;0.53;;;0.53;;
16531;SDS011;66872;63.142;14.482;2024-02-04T08:59:18;0.70;;;0.67;;
16531;SDS011;66872;63.142;14.482;2024-02-04T09:01:44;0.97;;;0.83;;
16531;SDS011;66872;63.142;14.482;2024-02-04T09:04:09;0.63;;;0.63;;
16531;SDS011;66872;63.142;14.482;2024-02-04T09:06:35;0.50;;;0.50;;
16531;SDS011;66872;63.142;14.482;2024-02-04T09:09:00;0.93;;;0.70;;
16531;SDS011;66872;63.142;14.482;2024-02-04T09:11:26;0.40;;;0.40;;
16531;SDS011;66872;63.142;14.482;2024-02-04T09:13:52;0.60;;;0.60;;
16531;SDS011;66872;63.142;14.482;2024-02-04T09:16:17;0.67;;;0.67;;
16531;SDS011;66872;63.142;14.482;2024-02-04T09:18:43;0.30;;;0.30;;
16531;SDS011;66872;63.142;14.482;2024-02-04T09:21:10;0.50;;;0.50;;
16531;SDS011;66872;63.142;14.482;2024-02-04T09:23:36;0.47;;;0.47;;
16531;SDS011;66872;63.142;14.482;2024-02-04T09:26:01;0.50;;;0.50;;
16531;SDS011;66872;63.142;14.482;2024-02-04T09:28:27;0.60;;;0.60;;
16531;SDS011;66872;63.142;14.482;2024-02-04T09:30:53;0.87;;;0.70;;
16531;SDS011;66872;63.142;14.482;2024-02-04T09:33:18;0.73;;;0.67;;
16531;SDS011;66872;63.142;14.482;2024-02-04T09:35:44;0.93;;;0.73;;
16531;SDS011;66872;63.142;14.482;2024-02-04T09:38:11;0.77;;;0.60;;
16531;SDS011;66872;63.142;14.482;2024-02-04T09:40:37;0.70;;;0.60;;
16531;SDS011;66872;63.142;14.482;2024-02-04T09:43:02;1.97;;;0.60;;
16531;SDS011;66872;63.142;14.482;2024-02-04T09:45:29;0.90;;;0.57;;
16531;SDS011;66872;63.142;14.482;2024-02-04T09:47:56;0.60;;;0.50;;
16531;SDS011;66872;63.142;14.482;2024-02-04T09:50:22;0.50;;;0.50;;
16531;SDS011;66872;63.142;14.482;2024-02-04T09:52:51;0.80;;;0.57;;
16531;SDS011;66872;63.142;14.482;2024-02-04T09:55:23;0.93;;;0.67;;
16531;SDS011;66872;63.142;14.482;2024-02-04T09:57:50;1.07;;;0.70;;
16531;SDS011;66872;63.142;14.482;2024-02-04T10:00:18;0.50;;;0.40;;
16531;SDS011;66872;63.142;14.482;2024-02-04T10:02:45;0.63;;;0.47;;
16531;SDS011;66872;63.142;14.482;2024-02-04T10:05:13;0.70;;;0.60;;
16531;SDS011;66872;63.142;14.482;2024-02-04T10:07:40;0.53;;;0.53;;
16531;SDS011;66872;63.142;14.482;2024-02-04T10:10:06;0.67;;;0.50;;
16531;SDS011;66872;63.142;14.482;2024-02-04T10:12:32;0.73;;;0.67;;
16531;SDS011;66872;63.142;14.482;2024-02-04T10:15:00;0.97;;;0.67;;
16531;SDS011;66872;63.142;14.482;2024-02-04T10:17:27;0.67;;;0.67;;
16531;SDS011;66872;63.142;14.482;2024-02-04T10:19:52;0.50;;;0.50;;
16531;SDS011;66872;63.142;14.482;2024-02-04T10:22:18;0.60;;;0.60;;
16531;SDS011;66872;63.142;14.482;2024-02-04T10:24:44;0.60;;;0.50;;
16531;SDS011;66872;63.142;14.482;2024-02-04T10:27:11;0.40;;;0.40;;
16531;SDS011;66872;63.142;14.482;2024-02-04T10:29:37;0.50;;;0.50;;
16531;SDS011;66872;63.142;14.482;2024-02-04T10:32:03;0.60;;;0.50;;
16531;SDS011;66872;63.142;14.482;2024-02-04T10:34:29;0.53;;;0.40;;
16531;SDS011;66872;63.142;14.482;2024-02-04T10:36:58;0.93;;;0.60;;
16531;SDS011;66872;63.142;14.482;2024-02-04T10:39:23;0.40;;;0.40;;
16531;SDS011;66872;63.142;14.482;2024-02-04T10:41:50;0.60;;;0.60;;
16531;SDS011;66872;63.142;14.482;2024-02-04T10:44:17;0.70;;;0.60;;
16531;SDS011;66872;63.142;14.482;2024-02-04T10:46:46;0.90;;;0.57;;
16531;SDS011;66872;63.142;14.482;2024-02-04T10:49:13;0.70;;;0.63;;
16531;SDS011;66872;63.142;14.482;2024-02-04T10:51:40;0.50;;;0.50;;
16531;SDS011;66872;63.142;14.482;2024-02-04T10:54:07;0.70;;;0.63;;
16531;SDS011;66872;63.142;14.482;2024-02-04T10:56:42;0.47;;;0.40;;
16531;SDS011;66872;63.142;14.482;2024-02-04T10:59:09;0.37;;;0.37;;
16531;SDS011;66872;63.142;14.482;2024-02-04T11:01:38;0.67;;;0.67;;
16531;SDS011;66872;63.142;14.482;2024-02-04T11:04:10;0.70;;;0.60;;
16531;SDS011;66872;63.142;14.482;2024-02-04T11:06:40;0.60;;;0.50;;
16531;SDS011;66872;63.142;14.482;2024-02-04T11:09:08;1.20;;;0.60;;
16531;SDS011;66872;63.142;14.482;2024-02-04T11:11:34;0.40;;;0.40;;
16531;SDS011;66872;63.142;14.482;2024-02-04T11:14:04;0.47;;;0.43;;
16531;SDS011;66872;63.142;14.482;2024-02-04T11:19:12;0.57;;;0.57;;
16531;SDS011;66872;63.142;14.482;2024-02-04T11:26:52;1.07;;;0.70;;
16531;SDS011;66872;63.142;14.482;2024-02-04T11:29:19;0.57;;;0.57;;
16531;SDS011;66872;63.142;14.482;2024-02-04T11:31:45;0.70;;;0.67;;
16531;SDS011;66872;63.142;14.482;2024-02-04T11:34:10;0.50;;;0.50;;
16531;SDS011;66872;63.142;14.482;2024-02-04T11:36:39;0.77;;;0.67;;
16531;SDS011;66872;63.142;14.482;2024-02-04T11:39:15;0.40;;;0.40;;
16531;SDS011;66872;63.142;14.482;2024-02-04T11:41:46;0.50;;;0.47;;
16531;SDS011;66872;63.142;14.482;2024-02-04T11:44:19;0.47;;;0.37;;
16531;SDS011;66872;63.142;14.482;2024-02-04T11:46:49;0.43;;;0.43;;
16531;SDS011;66872;63.142;14.482;2024-02-04T11:49:19;0.20;;;0.20;;
16531;SDS011;66872;63.142;14.482;2024-02-04T11:51:52;0.30;;;0.30;;
16531;SDS011;66872;63.142;14.482;2024-02-04T11:54:19;0.53;;;0.53;;
16531;SDS011;66872;63.142;14.482;2024-02-04T11:56:45;0.60;;;0.50;;
16531;SDS011;66872;63.142;14.482;2024-02-04T11:59:18;0.63;;;0.50;;
16531;SDS011;66872;63.142;14.482;2024-02-04T12:01:48;0.47;;;0.47;;
16531;SDS011;66872;63.142;14.482;2024-02-04T12:04:18;0.50;;;0.37;;
16531;SDS011;66872;63.142;14.482;2024-02-04T12:06:44;0.47;;;0.43;;
16531;SDS011;66872;63.142;14.482;2024-02-04T12:09:11;0.40;;;0.40;;
16531;SDS011;66872;63.142;14.482;2024-02-04T12:11:37;0.50;;;0.50;;
16531;SDS011;66872;63.142;14.482;2024-02-04T12:14:04;0.30;;;0.30;;
16531;SDS011;66872;63.142;14.482;2024-02-04T12:16:31;0.60;;;0.60;;
16531;SDS011;66872;63.142;14.482;2024-02-04T12:19:01;0.50;;;0.50;;
16531;SDS011;66872;63.142;14.482;2024-02-04T12:21:31;0.40;;;0.40;;
16531;SDS011;66872;63.142;14.482;2024-02-04T12:23:58;0.60;;;0.60;;
16531;SDS011;66872;63.142;14.482;2024-02-04T12:26:24;0.30;;;0.30;;
16531;SDS011;66872;63.142;14.482;2024-02-04T12:28:51;0.30;;;0.30;;
16531;SDS011;66872;63.142;14.482;2024-02-04T12:31:17;0.30;;;0.30;;
16531;SDS011;66872;63.142;14.482;2024-02-04T12:33:53;0.40;;;0.40;;
16531;SDS011;66872;63.142;14.482;2024-02-04T12:36:27;0.47;;;0.47;;
16531;SDS011;66872;63.142;14.482;2024-02-04T12:38:54;0.60;;;0.60;;
16531;SDS011;66872;63.142;14.482;2024-02-04T12:41:21;0.40;;;0.40;;
16531;SDS011;66872;63.142;14.482;2024-02-04T12:46:18;0.50;;;0.50;;
16531;SDS011;66872;63.142;14.482;2024-02-04T12:48:44;0.33;;;0.33;;
16531;SDS011;66872;63.142;14.482;2024-02-04T12:51:10;0.40;;;0.40;;
16531;SDS011;66872;63.142;14.482;2024-02-04T12:53:38;0.47;;;0.47;;
16531;SDS011;66872;63.142;14.482;2024-02-04T12:56:04;0.57;;;0.40;;
16531;SDS011;66872;63.142;14.482;2024-02-04T12:58:30;0.27;;;0.27;;
16531;SDS011;66872;63.142;14.482;2024-02-04T13:01:01;0.50;;;0.47;;
16531;SDS011;66872;63.142;14.482;2024-02-04T13:03:29;0.30;;;0.30;;
16531;SDS011;66872;63.142;14.482;2024-02-04T13:05:58;0.43;;;0.43;;
16531;SDS011;66872;63.142;14.482;2024-02-04T13:08:24;0.40;;;0.40;;
16531;SDS011;66872;63.142;14.482;2024-02-04T13:10:56;0.50;;;0.50;;
16531;SDS011;66872;63.142;14.482;2024-02-04T13:13:22;0.30;;;0.30;;
16531;SDS011;66872;63.142;14.482;2024-02-04T13:15:52;0.47;;;0.47;;
16531;SDS011;66872;63.142;14.482;2024-02-04T13:18:17;0.27;;;0.27;;
16531;SDS011;66872;63.142;14.482;2024-02-04T13:20:43;0.30;;;0.30;;
16531;SDS011;66872;63.142;14.482;2024-02-04T13:23:10;0.40;;;0.40;;
16531;SDS011;66872;63.142;14.482;2024-02-04T13:25:37;0.30;;;0.30;;
16531;SDS011;66872;63.142;14.482;2024-02-04T13:28:03;0.40;;;0.40;;
16531;SDS011;66872;63.142;14.482;2024-02-04T13:30:29;0.20;;;0.20;;
16531;SDS011;66872;63.142;14.482;2024-02-04T13:32:55;0.50;;;0.50;;
16531;SDS011;66872;63.142;14.482;2024-02-04T13:35:22;0.30;;;0.30;;
16531;SDS011;66872;63.142;14.482;2024-02-04T13:37:48;0.50;;;0.50;;
16531;SDS011;66872;63.142;14.482;2024-02-04T13:40:18;0.50;;;0.50;;
16531;SDS011;66872;63.142;14.482;2024-02-04T13:42:44;0.50;;;0.50;;
16531;SDS011;66872;63.142;14.482;2024-02-04T13:45:11;0.30;;;0.30;;
16531;SDS011;66872;63.142;14.482;2024-02-04T13:47:40;0.40;;;0.40;;
16531;SDS011;66872;63.142;14.482;2024-02-04T13:50:07;0.40;;;0.40;;
16531;SDS011;66872;63.142;14.482;2024-02-04T13:52:34;0.30;;;0.30;;
16531;SDS011;66872;63.142;14.482;2024-02-04T13:55:00;0.30;;;0.30;;
16531;SDS011;66872;63.142;14.482;2024-02-04T13:57:26;0.60;;;0.53;;
16531;SDS011;66872;63.142;14.482;2024-02-04T13:59:52;0.43;;;0.43;;
16531;SDS011;66872;63.142;14.482;2024-02-04T14:02:18;0.30;;;0.30;;
16531;SDS011;66872;63.142;14.482;2024-02-04T14:04:43;0.57;;;0.40;;
16531;SDS011;66872;63.142;14.482;2024-02-04T14:07:09;0.50;;;0.50;;
16531;SDS011;66872;63.142;14.482;2024-02-04T14:09:35;0.20;;;0.20;;
16531;SDS011;66872;63.142;14.482;2024-02-04T14:12:01;0.30;;;0.30;;
16531;SDS011;66872;63.142;14.482;2024-02-04T14:14:28;0.30;;;0.30;;
16531;SDS011;66872;63.142;14.482;2024-02-04T14:16:54;0.40;;;0.40;;
16531;SDS011;66872;63.142;14.482;2024-02-04T14:19:20;0.43;;;0.30;;
16531;SDS011;66872;63.142;14.482;2024-02-04T14:21:46;0.60;;;0.60;;
16531;SDS011;66872;63.142;14.482;2024-02-04T14:24:11;0.20;;;0.20;;
16531;SDS011;66872;63.142;14.482;2024-02-04T14:26:38;0.33;;;0.33;;
16531;SDS011;66872;63.142;14.482;2024-02-04T14:29:03;0.37;;;0.37;;
16531;SDS011;66872;63.142;14.482;2024-02-04T14:31:29;0.33;;;0.33;;
16531;SDS011;66872;63.142;14.482;2024-02-04T14:33:55;0.50;;;0.50;;
16531;SDS011;66872;63.142;14.482;2024-02-04T14:36:21;0.37;;;0.37;;
16531;SDS011;66872;63.142;14.482;2024-02-04T14:38:46;0.23;;;0.23;;
16531;SDS011;66872;63.142;14.482;2024-02-04T14:41:12;0.30;;;0.30;;
16531;SDS011;66872;63.142;14.482;2024-02-04T14:43:38;0.20;;;0.20;;
16531;SDS011;66872;63.142;14.482;2024-02-04T14:46:04;0.70;;;0.40;;